sensor_id;sensor_type;location;lat;lon;timestamp;temperature;humidity
47861;HTU21D;33620;52.340;5.984;2023-06-24T00:02:23;19.92;72.87
47861;HTU21D;33620;52.340;5.984;2023-06-24T00:04:50;19.86;72.99
47861;HTU21D;33620;52.340;5.984;2023-06-24T00:07:15;19.81;73.07
47861;HTU21D;33620;52.340;5.984;2023-06-24T00:09:41;19.79;73.35
47861;HTU21D;33620;52.340;5.984;2023-06-24T00:12:07;19.76;73.26
47861;HTU21D;33620;52.340;5.984;2023-06-24T00:14:32;19.72;73.37
47861;HTU21D;33620;52.340;5.984;2023-06-24T00:16:58;19.71;73.47
47861;HTU21D;33620;52.340;5.984;2023-06-24T00:19:25;19.69;73.59
47861;HTU21D;33620;52.340;5.984;2023-06-24T00:21:52;19.69;73.32
47861;HTU21D;33620;52.340;5.984;2023-06-24T00:24:21;19.62;73.86
47861;HTU21D;33620;52.340;5.984;2023-06-24T00:26:54;19.65;73.79
47861;HTU21D;33620;52.340;5.984;2023-06-24T00:29:20;19.63;73.56
47861;HTU21D;33620;52.340;5.984;2023-06-24T00:31:45;19.57;73.90
47861;HTU21D;33620;52.340;5.984;2023-06-24T00:34:11;19.55;73.89
47861;HTU21D;33620;52.340;5.984;2023-06-24T00:36:36;19.53;73.80
47861;HTU21D;33620;52.340;5.984;2023-06-24T00:39:02;19.52;73.94
47861;HTU21D;33620;52.340;5.984;2023-06-24T00:41:29;19.52;73.67
47861;HTU21D;33620;52.340;5.984;2023-06-24T00:43:56;19.48;73.75
47861;HTU21D;33620;52.340;5.984;2023-06-24T00:46:23;19.47;73.86
47861;HTU21D;33620;52.340;5.984;2023-06-24T00:48:54;19.44;73.86
47861;HTU21D;33620;52.340;5.984;2023-06-24T00:51:20;19.42;73.85
47861;HTU21D;33620;52.340;5.984;2023-06-24T00:53:47;19.44;73.90
47861;HTU21D;33620;52.340;5.984;2023-06-24T00:56:13;19.44;74.01
47861;HTU21D;33620;52.340;5.984;2023-06-24T00:58:42;19.45;73.99
47861;HTU21D;33620;52.340;5.984;2023-06-24T01:01:09;19.45;73.87
47861;HTU21D;33620;52.340;5.984;2023-06-24T01:03:36;19.43;73.79
47861;HTU21D;33620;52.340;5.984;2023-06-24T01:06:02;19.44;73.70
47861;HTU21D;33620;52.340;5.984;2023-06-24T01:08:28;19.43;73.72
47861;HTU21D;33620;52.340;5.984;2023-06-24T01:10:53;19.42;73.93
47861;HTU21D;33620;52.340;5.984;2023-06-24T01:13:20;19.44;73.99
47861;HTU21D;33620;52.340;5.984;2023-06-24T01:15:46;19.45;74.06
47861;HTU21D;33620;52.340;5.984;2023-06-24T01:18:13;19.43;74.04
47861;HTU21D;33620;52.340;5.984;2023-06-24T01:20:56;19.41;74.11
47861;HTU21D;33620;52.340;5.984;2023-06-24T01:26:26;19.41;73.69
47861;HTU21D;33620;52.340;5.984;2023-06-24T01:29:34;19.38;73.85
47861;HTU21D;33620;52.340;5.984;2023-06-24T01:32:25;19.33;74.09
47861;HTU21D;33620;52.340;5.984;2023-06-24T01:35:15;19.30;74.35
47861;HTU21D;33620;52.340;5.984;2023-06-24T01:37:45;19.26;74.46
47861;HTU21D;33620;52.340;5.984;2023-06-24T01:42:51;19.24;74.56
47861;HTU21D;33620;52.340;5.984;2023-06-24T01:45:23;19.25;74.13
47861;HTU21D;33620;52.340;5.984;2023-06-24T01:47:59;19.23;74.24
47861;HTU21D;33620;52.340;5.984;2023-06-24T01:50:26;19.18;74.71
47861;HTU21D;33620;52.340;5.984;2023-06-24T01:52:54;19.15;74.80
47861;HTU21D;33620;52.340;5.984;2023-06-24T01:55:21;19.12;74.72
47861;HTU21D;33620;52.340;5.984;2023-06-24T01:57:50;19.12;74.63
47861;HTU21D;33620;52.340;5.984;2023-06-24T02:00:17;19.10;74.61
47861;HTU21D;33620;52.340;5.984;2023-06-24T02:02:43;19.06;74.75
47861;HTU21D;33620;52.340;5.984;2023-06-24T02:05:10;19.02;74.85
47861;HTU21D;33620;52.340;5.984;2023-06-24T02:07:37;18.98;75.09
47861;HTU21D;33620;52.340;5.984;2023-06-24T02:10:04;18.97;75.28
47861;HTU21D;33620;52.340;5.984;2023-06-24T02:12:32;18.95;75.46
47861;HTU21D;33620;52.340;5.984;2023-06-24T02:14:58;18.94;75.53
47861;HTU21D;33620;52.340;5.984;2023-06-24T02:17:24;18.94;75.39
47861;HTU21D;33620;52.340;5.984;2023-06-24T02:19:51;18.92;75.45
47861;HTU21D;33620;52.340;5.984;2023-06-24T02:22:18;18.92;75.31
47861;HTU21D;33620;52.340;5.984;2023-06-24T02:24:45;18.93;75.54
47861;HTU21D;33620;52.340;5.984;2023-06-24T02:27:11;18.92;75.30
47861;HTU21D;33620;52.340;5.984;2023-06-24T02:29:39;18.83;75.13
47861;HTU21D;33620;52.340;5.984;2023-06-24T02:32:05;18.74;75.57
47861;HTU21D;33620;52.340;5.984;2023-06-24T02:34:31;18.71;75.48
47861;HTU21D;33620;52.340;5.984;2023-06-24T02:36:57;18.63;75.33
47861;HTU21D;33620;52.340;5.984;2023-06-24T02:39:22;18.53;75.21
47861;HTU21D;33620;52.340;5.984;2023-06-24T02:41:48;18.39;75.78
47861;HTU21D;33620;52.340;5.984;2023-06-24T02:44:15;18.26;75.89
47861;HTU21D;33620;52.340;5.984;2023-06-24T02:46:41;18.15;76.40
47861;HTU21D;33620;52.340;5.984;2023-06-24T02:49:09;18.11;76.66
47861;HTU21D;33620;52.340;5.984;2023-06-24T02:51:37;18.10;76.76
47861;HTU21D;33620;52.340;5.984;2023-06-24T02:54:03;18.17;76.65
47861;HTU21D;33620;52.340;5.984;2023-06-24T02:56:29;18.18;76.58
47861;HTU21D;33620;52.340;5.984;2023-06-24T02:58:55;18.19;76.48
47861;HTU21D;33620;52.340;5.984;2023-06-24T03:01:21;18.22;76.44
47861;HTU21D;33620;52.340;5.984;2023-06-24T03:03:52;18.26;76.32
47861;HTU21D;33620;52.340;5.984;2023-06-24T03:06:18;18.24;76.37
47861;HTU21D;33620;52.340;5.984;2023-06-24T03:08:45;18.25;76.49
47861;HTU21D;33620;52.340;5.984;2023-06-24T03:11:14;18.22;76.63
47861;HTU21D;33620;52.340;5.984;2023-06-24T03:13:40;18.19;76.58
47861;HTU21D;33620;52.340;5.984;2023-06-24T03:16:05;18.19;76.67
47861;HTU21D;33620;52.340;5.984;2023-06-24T03:18:31;18.19;76.78
47861;HTU21D;33620;52.340;5.984;2023-06-24T03:20:56;18.14;76.96
47861;HTU21D;33620;52.340;5.984;2023-06-24T03:23:22;18.12;77.18
47861;HTU21D;33620;52.340;5.984;2023-06-24T03:25:47;18.15;77.14
47861;HTU21D;33620;52.340;5.984;2023-06-24T03:28:13;18.17;76.87
47861;HTU21D;33620;52.340;5.984;2023-06-24T03:30:38;18.20;76.78
47861;HTU21D;33620;52.340;5.984;2023-06-24T03:33:04;18.21;76.68
47861;HTU21D;33620;52.340;5.984;2023-06-24T03:35:31;18.13;76.70
47861;HTU21D;33620;52.340;5.984;2023-06-24T03:37:58;18.08;77.10
47861;HTU21D;33620;52.340;5.984;2023-06-24T03:40:23;18.09;77.26
47861;HTU21D;33620;52.340;5.984;2023-06-24T03:42:48;18.09;77.32
47861;HTU21D;33620;52.340;5.984;2023-06-24T03:45:14;18.08;77.11
47861;HTU21D;33620;52.340;5.984;2023-06-24T03:47:39;18.05;77.39
47861;HTU21D;33620;52.340;5.984;2023-06-24T03:50:05;18.06;77.54
47861;HTU21D;33620;52.340;5.984;2023-06-24T03:52:31;18.07;77.62
47861;HTU21D;33620;52.340;5.984;2023-06-24T03:54:56;18.07;77.76
47861;HTU21D;33620;52.340;5.984;2023-06-24T03:57:21;18.03;77.80
47861;HTU21D;33620;52.340;5.984;2023-06-24T03:59:47;17.98;77.89
47861;HTU21D;33620;52.340;5.984;2023-06-24T04:02:13;17.93;78.00
47861;HTU21D;33620;52.340;5.984;2023-06-24T04:04:39;17.92;78.05
47861;HTU21D;33620;52.340;5.984;2023-06-24T04:07:04;17.92;77.98
47861;HTU21D;33620;52.340;5.984;2023-06-24T04:09:33;17.93;77.71
47861;HTU21D;33620;52.340;5.984;2023-06-24T04:11:59;17.92;77.76
47861;HTU21D;33620;52.340;5.984;2023-06-24T04:14:24;17.93;77.74
47861;HTU21D;33620;52.340;5.984;2023-06-24T04:16:49;17.92;77.79
47861;HTU21D;33620;52.340;5.984;2023-06-24T04:19:15;17.88;77.97
47861;HTU21D;33620;52.340;5.984;2023-06-24T04:21:41;17.87;78.24
47861;HTU21D;33620;52.340;5.984;2023-06-24T04:24:07;17.91;78.01
47861;HTU21D;33620;52.340;5.984;2023-06-24T04:26:32;17.99;77.76
47861;HTU21D;33620;52.340;5.984;2023-06-24T04:28:58;17.98;77.76
47861;HTU21D;33620;52.340;5.984;2023-06-24T04:31:24;17.98;77.89
47861;HTU21D;33620;52.340;5.984;2023-06-24T04:33:50;18.00;78.18
47861;HTU21D;33620;52.340;5.984;2023-06-24T04:36:16;18.00;78.27
47861;HTU21D;33620;52.340;5.984;2023-06-24T04:38:41;17.99;78.35
47861;HTU21D;33620;52.340;5.984;2023-06-24T04:41:06;17.98;78.63
47861;HTU21D;33620;52.340;5.984;2023-06-24T04:43:32;18.00;79.06
47861;HTU21D;33620;52.340;5.984;2023-06-24T04:45:57;18.04;78.99
47861;HTU21D;33620;52.340;5.984;2023-06-24T04:48:23;18.06;78.93
47861;HTU21D;33620;52.340;5.984;2023-06-24T04:50:49;18.11;78.81
47861;HTU21D;33620;52.340;5.984;2023-06-24T04:53:15;18.14;78.95
47861;HTU21D;33620;52.340;5.984;2023-06-24T04:55:40;18.20;78.88
47861;HTU21D;33620;52.340;5.984;2023-06-24T04:58:06;18.26;78.79
47861;HTU21D;33620;52.340;5.984;2023-06-24T05:00:31;18.27;78.99
47861;HTU21D;33620;52.340;5.984;2023-06-24T05:02:57;18.33;78.87
47861;HTU21D;33620;52.340;5.984;2023-06-24T05:05:22;18.38;78.82
47861;HTU21D;33620;52.340;5.984;2023-06-24T05:07:48;18.42;78.72
47861;HTU21D;33620;52.340;5.984;2023-06-24T05:10:13;18.47;78.59
47861;HTU21D;33620;52.340;5.984;2023-06-24T05:12:39;18.51;78.40
47861;HTU21D;33620;52.340;5.984;2023-06-24T05:15:05;18.55;78.47
47861;HTU21D;33620;52.340;5.984;2023-06-24T05:17:30;18.61;78.44
47861;HTU21D;33620;52.340;5.984;2023-06-24T05:19:55;18.68;78.34
47861;HTU21D;33620;52.340;5.984;2023-06-24T05:22:21;18.71;78.28
47861;HTU21D;33620;52.340;5.984;2023-06-24T05:24:46;18.76;78.43
47861;HTU21D;33620;52.340;5.984;2023-06-24T05:27:12;18.79;78.26
47861;HTU21D;33620;52.340;5.984;2023-06-24T05:29:37;18.81;77.82
47861;HTU21D;33620;52.340;5.984;2023-06-24T05:32:03;18.83;77.82
47861;HTU21D;33620;52.340;5.984;2023-06-24T05:34:30;18.88;77.74
47861;HTU21D;33620;52.340;5.984;2023-06-24T05:36:55;18.94;78.04
47861;HTU21D;33620;52.340;5.984;2023-06-24T05:39:21;19.01;77.87
47861;HTU21D;33620;52.340;5.984;2023-06-24T05:41:46;19.09;77.45
47861;HTU21D;33620;52.340;5.984;2023-06-24T05:44:14;19.13;77.31
47861;HTU21D;33620;52.340;5.984;2023-06-24T05:46:39;19.20;77.10
47861;HTU21D;33620;52.340;5.984;2023-06-24T05:49:05;19.26;76.86
47861;HTU21D;33620;52.340;5.984;2023-06-24T05:51:30;19.32;76.72
47861;HTU21D;33620;52.340;5.984;2023-06-24T05:53:56;19.39;76.48
47861;HTU21D;33620;52.340;5.984;2023-06-24T05:56:21;19.44;76.66
47861;HTU21D;33620;52.340;5.984;2023-06-24T05:58:50;19.54;76.75
47861;HTU21D;33620;52.340;5.984;2023-06-24T06:01:16;19.61;76.78
47861;HTU21D;33620;52.340;5.984;2023-06-24T06:03:41;19.66;76.13
47861;HTU21D;33620;52.340;5.984;2023-06-24T06:06:07;19.71;76.09
47861;HTU21D;33620;52.340;5.984;2023-06-24T06:08:33;19.72;74.93
47861;HTU21D;33620;52.340;5.984;2023-06-24T06:10:59;19.75;74.54
47861;HTU21D;33620;52.340;5.984;2023-06-24T06:13:24;19.75;74.51
47861;HTU21D;33620;52.340;5.984;2023-06-24T06:15:49;19.81;74.44
47861;HTU21D;33620;52.340;5.984;2023-06-24T06:18:15;19.86;74.74
47861;HTU21D;33620;52.340;5.984;2023-06-24T06:20:40;19.89;74.80
47861;HTU21D;33620;52.340;5.984;2023-06-24T06:23:06;19.89;73.63
47861;HTU21D;33620;52.340;5.984;2023-06-24T06:25:32;19.96;74.31
47861;HTU21D;33620;52.340;5.984;2023-06-24T06:27:57;20.02;74.58
47861;HTU21D;33620;52.340;5.984;2023-06-24T06:30:23;20.11;74.38
47861;HTU21D;33620;52.340;5.984;2023-06-24T06:32:48;20.16;74.25
47861;HTU21D;33620;52.340;5.984;2023-06-24T06:35:14;20.22;74.26
47861;HTU21D;33620;52.340;5.984;2023-06-24T06:37:39;20.29;74.06
47861;HTU21D;33620;52.340;5.984;2023-06-24T06:40:05;20.35;73.50
47861;HTU21D;33620;52.340;5.984;2023-06-24T06:42:31;20.43;73.34
47861;HTU21D;33620;52.340;5.984;2023-06-24T06:44:56;20.50;73.17
47861;HTU21D;33620;52.340;5.984;2023-06-24T06:47:22;20.56;72.41
47861;HTU21D;33620;52.340;5.984;2023-06-24T06:49:48;20.61;72.55
47861;HTU21D;33620;52.340;5.984;2023-06-24T06:52:13;20.65;71.82
47861;HTU21D;33620;52.340;5.984;2023-06-24T06:54:38;20.72;71.29
47861;HTU21D;33620;52.340;5.984;2023-06-24T06:57:04;20.78;70.35
47861;HTU21D;33620;52.340;5.984;2023-06-24T06:59:33;20.87;70.17
47861;HTU21D;33620;52.340;5.984;2023-06-24T07:01:58;20.93;69.04
47861;HTU21D;33620;52.340;5.984;2023-06-24T07:04:24;20.98;67.19
47861;HTU21D;33620;52.340;5.984;2023-06-24T07:06:50;21.05;67.20
47861;HTU21D;33620;52.340;5.984;2023-06-24T07:09:15;21.11;67.14
47861;HTU21D;33620;52.340;5.984;2023-06-24T07:11:41;21.19;67.18
47861;HTU21D;33620;52.340;5.984;2023-06-24T07:14:07;21.25;67.25
47861;HTU21D;33620;52.340;5.984;2023-06-24T07:16:33;21.28;64.85
47861;HTU21D;33620;52.340;5.984;2023-06-24T07:18:58;21.31;65.00
47861;HTU21D;33620;52.340;5.984;2023-06-24T07:21:23;21.31;62.79
47861;HTU21D;33620;52.340;5.984;2023-06-24T07:23:49;21.35;62.41
47861;HTU21D;33620;52.340;5.984;2023-06-24T07:26:14;21.36;60.45
47861;HTU21D;33620;52.340;5.984;2023-06-24T07:28:40;21.43;58.95
47861;HTU21D;33620;52.340;5.984;2023-06-24T07:31:05;21.49;59.09
47861;HTU21D;33620;52.340;5.984;2023-06-24T07:33:30;21.52;57.88
47861;HTU21D;33620;52.340;5.984;2023-06-24T07:35:56;21.59;59.26
47861;HTU21D;33620;52.340;5.984;2023-06-24T07:38:22;21.63;56.54
47861;HTU21D;33620;52.340;5.984;2023-06-24T07:40:48;21.67;55.95
47861;HTU21D;33620;52.340;5.984;2023-06-24T07:43:13;21.72;55.30
47861;HTU21D;33620;52.340;5.984;2023-06-24T07:45:39;21.76;55.67
47861;HTU21D;33620;52.340;5.984;2023-06-24T07:48:04;21.79;54.94
47861;HTU21D;33620;52.340;5.984;2023-06-24T07:50:30;21.83;54.99
47861;HTU21D;33620;52.340;5.984;2023-06-24T07:52:56;21.88;55.49
47861;HTU21D;33620;52.340;5.984;2023-06-24T07:55:22;21.95;55.75
47861;HTU21D;33620;52.340;5.984;2023-06-24T07:57:47;21.98;54.59
47861;HTU21D;33620;52.340;5.984;2023-06-24T08:00:14;22.07;55.77
47861;HTU21D;33620;52.340;5.984;2023-06-24T08:02:41;22.12;55.17
47861;HTU21D;33620;52.340;5.984;2023-06-24T08:05:07;22.23;52.98
47861;HTU21D;33620;52.340;5.984;2023-06-24T08:07:32;22.31;53.68
47861;HTU21D;33620;52.340;5.984;2023-06-24T08:09:58;22.39;54.06
47861;HTU21D;33620;52.340;5.984;2023-06-24T08:12:23;22.50;52.90
47861;HTU21D;33620;52.340;5.984;2023-06-24T08:14:48;22.60;52.28
47861;HTU21D;33620;52.340;5.984;2023-06-24T08:17:14;22.70;51.36
47861;HTU21D;33620;52.340;5.984;2023-06-24T08:19:39;22.80;50.96
47861;HTU21D;33620;52.340;5.984;2023-06-24T08:22:04;22.93;52.06
47861;HTU21D;33620;52.340;5.984;2023-06-24T08:24:31;23.07;50.08
47861;HTU21D;33620;52.340;5.984;2023-06-24T08:26:56;23.21;50.65
47861;HTU21D;33620;52.340;5.984;2023-06-24T08:29:22;23.37;49.92
47861;HTU21D;33620;52.340;5.984;2023-06-24T08:31:47;23.52;49.41
47861;HTU21D;33620;52.340;5.984;2023-06-24T08:34:12;23.70;49.69
47861;HTU21D;33620;52.340;5.984;2023-06-24T08:36:38;23.88;48.64
47861;HTU21D;33620;52.340;5.984;2023-06-24T08:39:03;24.05;48.03
47861;HTU21D;33620;52.340;5.984;2023-06-24T08:41:29;24.21;46.64
47861;HTU21D;33620;52.340;5.984;2023-06-24T08:43:54;24.42;46.69
47861;HTU21D;33620;52.340;5.984;2023-06-24T08:46:20;24.61;43.56
47861;HTU21D;33620;52.340;5.984;2023-06-24T08:48:48;24.78;45.22
47861;HTU21D;33620;52.340;5.984;2023-06-24T08:51:17;24.91;45.90
47861;HTU21D;33620;52.340;5.984;2023-06-24T08:53:44;25.08;45.89
47861;HTU21D;33620;52.340;5.984;2023-06-24T08:56:10;25.17;45.29
47861;HTU21D;33620;52.340;5.984;2023-06-24T08:58:36;25.17;45.19
47861;HTU21D;33620;52.340;5.984;2023-06-24T09:01:02;25.10;44.27
47861;HTU21D;33620;52.340;5.984;2023-06-24T09:03:27;25.07;46.19
47861;HTU21D;33620;52.340;5.984;2023-06-24T09:05:53;25.07;44.35
47861;HTU21D;33620;52.340;5.984;2023-06-24T09:08:18;25.00;45.96
47861;HTU21D;33620;52.340;5.984;2023-06-24T09:10:55;25.00;44.74
47861;HTU21D;33620;52.340;5.984;2023-06-24T09:13:21;25.06;44.87
47861;HTU21D;33620;52.340;5.984;2023-06-24T09:15:48;25.07;45.80
47861;HTU21D;33620;52.340;5.984;2023-06-24T09:18:13;25.20;45.45
47861;HTU21D;33620;52.340;5.984;2023-06-24T09:20:42;25.33;45.95
47861;HTU21D;33620;52.340;5.984;2023-06-24T09:23:10;25.52;47.24
47861;HTU21D;33620;52.340;5.984;2023-06-24T09:25:36;25.72;46.35
47861;HTU21D;33620;52.340;5.984;2023-06-24T09:28:01;25.82;44.67
47861;HTU21D;33620;52.340;5.984;2023-06-24T09:30:27;25.88;44.86
47861;HTU21D;33620;52.340;5.984;2023-06-24T09:32:54;25.95;43.84
47861;HTU21D;33620;52.340;5.984;2023-06-24T09:35:24;25.91;45.24
47861;HTU21D;33620;52.340;5.984;2023-06-24T09:40:16;25.93;42.75
47861;HTU21D;33620;52.340;5.984;2023-06-24T09:43:07;26.08;45.27
47861;HTU21D;33620;52.340;5.984;2023-06-24T09:45:34;26.19;44.97
47861;HTU21D;33620;52.340;5.984;2023-06-24T09:47:59;26.19;43.25
47861;HTU21D;33620;52.340;5.984;2023-06-24T09:50:25;26.31;43.78
47861;HTU21D;33620;52.340;5.984;2023-06-24T09:52:52;26.35;43.74
47861;HTU21D;33620;52.340;5.984;2023-06-24T09:55:18;26.39;42.97
47861;HTU21D;33620;52.340;5.984;2023-06-24T09:57:50;26.46;42.79
47861;HTU21D;33620;52.340;5.984;2023-06-24T10:00:19;26.51;43.53
47861;HTU21D;33620;52.340;5.984;2023-06-24T10:02:45;26.60;42.91
47861;HTU21D;33620;52.340;5.984;2023-06-24T10:05:14;26.62;44.33
47861;HTU21D;33620;52.340;5.984;2023-06-24T10:07:40;26.70;43.84
47861;HTU21D;33620;52.340;5.984;2023-06-24T10:10:07;26.79;44.00
47861;HTU21D;33620;52.340;5.984;2023-06-24T10:12:34;26.89;42.86
47861;HTU21D;33620;52.340;5.984;2023-06-24T10:15:00;26.95;44.01
47861;HTU21D;33620;52.340;5.984;2023-06-24T10:17:26;26.93;42.07
47861;HTU21D;33620;52.340;5.984;2023-06-24T10:19:52;27.01;43.55
47861;HTU21D;33620;52.340;5.984;2023-06-24T10:22:23;27.15;43.28
47861;HTU21D;33620;52.340;5.984;2023-06-24T10:24:51;27.22;41.89
47861;HTU21D;33620;52.340;5.984;2023-06-24T10:27:19;27.22;42.39
47861;HTU21D;33620;52.340;5.984;2023-06-24T10:29:52;27.30;41.04
47861;HTU21D;33620;52.340;5.984;2023-06-24T10:32:19;27.36;41.51
47861;HTU21D;33620;52.340;5.984;2023-06-24T10:34:49;27.44;41.55
47861;HTU21D;33620;52.340;5.984;2023-06-24T10:37:23;27.55;41.34
47861;HTU21D;33620;52.340;5.984;2023-06-24T10:39:57;27.59;39.37
47861;HTU21D;33620;52.340;5.984;2023-06-24T10:45:02;27.67;41.28
47861;HTU21D;33620;52.340;5.984;2023-06-24T10:47:40;27.85;40.81
47861;HTU21D;33620;52.340;5.984;2023-06-24T10:50:08;27.89;37.88
47861;HTU21D;33620;52.340;5.984;2023-06-24T10:52:38;27.98;39.53
47861;HTU21D;33620;52.340;5.984;2023-06-24T10:55:04;27.88;36.53
47861;HTU21D;33620;52.340;5.984;2023-06-24T10:57:29;27.86;38.11
47861;HTU21D;33620;52.340;5.984;2023-06-24T10:59:57;28.00;38.69
47861;HTU21D;33620;52.340;5.984;2023-06-24T11:02:24;28.18;39.17
47861;HTU21D;33620;52.340;5.984;2023-06-24T11:04:52;28.23;39.39
47861;HTU21D;33620;52.340;5.984;2023-06-24T11:07:20;28.39;39.14
47861;HTU21D;33620;52.340;5.984;2023-06-24T11:09:56;28.50;36.53
47861;HTU21D;33620;52.340;5.984;2023-06-24T11:12:30;28.49;38.47
47861;HTU21D;33620;52.340;5.984;2023-06-24T11:15:04;28.64;37.04
47861;HTU21D;33620;52.340;5.984;2023-06-24T11:17:30;28.67;36.89
47861;HTU21D;33620;52.340;5.984;2023-06-24T11:19:56;28.56;37.86
47861;HTU21D;33620;52.340;5.984;2023-06-24T11:22:23;28.45;39.67
47861;HTU21D;33620;52.340;5.984;2023-06-24T11:24:49;28.39;40.58
47861;HTU21D;33620;52.340;5.984;2023-06-24T11:27:15;28.37;40.07
47861;HTU21D;33620;52.340;5.984;2023-06-24T11:29:40;28.54;39.65
47861;HTU21D;33620;52.340;5.984;2023-06-24T11:32:09;28.56;37.14
47861;HTU21D;33620;52.340;5.984;2023-06-24T11:34:38;28.48;39.57
47861;HTU21D;33620;52.340;5.984;2023-06-24T11:37:15;28.61;40.86
47861;HTU21D;33620;52.340;5.984;2023-06-24T11:39:40;28.76;39.94
47861;HTU21D;33620;52.340;5.984;2023-06-24T11:42:07;28.73;35.93
47861;HTU21D;33620;52.340;5.984;2023-06-24T11:44:38;28.67;36.78
47861;HTU21D;33620;52.340;5.984;2023-06-24T11:47:06;28.67;37.30
47861;HTU21D;33620;52.340;5.984;2023-06-24T11:49:32;28.41;39.62
47861;HTU21D;33620;52.340;5.984;2023-06-24T11:52:12;28.30;39.90
47861;HTU21D;33620;52.340;5.984;2023-06-24T11:54:40;28.23;39.82
47861;HTU21D;33620;52.340;5.984;2023-06-24T11:57:06;28.18;41.51
47861;HTU21D;33620;52.340;5.984;2023-06-24T11:59:31;28.17;40.27
47861;HTU21D;33620;52.340;5.984;2023-06-24T12:01:58;28.21;40.77
47861;HTU21D;33620;52.340;5.984;2023-06-24T12:04:29;28.24;40.31
47861;HTU21D;33620;52.340;5.984;2023-06-24T12:06:55;28.19;39.55
47861;HTU21D;33620;52.340;5.984;2023-06-24T12:09:20;28.02;39.17
47861;HTU21D;33620;52.340;5.984;2023-06-24T12:11:46;27.95;40.10
47861;HTU21D;33620;52.340;5.984;2023-06-24T12:14:11;27.84;40.18
47861;HTU21D;33620;52.340;5.984;2023-06-24T12:16:38;27.87;41.58
47861;HTU21D;33620;52.340;5.984;2023-06-24T12:19:03;27.82;40.86
47861;HTU21D;33620;52.340;5.984;2023-06-24T12:21:29;27.84;40.68
47861;HTU21D;33620;52.340;5.984;2023-06-24T12:23:54;27.83;41.22
47861;HTU21D;33620;52.340;5.984;2023-06-24T12:26:19;27.79;40.78
47861;HTU21D;33620;52.340;5.984;2023-06-24T12:28:45;27.76;42.10
47861;HTU21D;33620;52.340;5.984;2023-06-24T12:31:11;27.69;42.94
47861;HTU21D;33620;52.340;5.984;2023-06-24T12:33:36;27.63;42.33
47861;HTU21D;33620;52.340;5.984;2023-06-24T12:36:02;27.64;42.29
47861;HTU21D;33620;52.340;5.984;2023-06-24T12:38:27;27.67;42.71
47861;HTU21D;33620;52.340;5.984;2023-06-24T12:40:53;27.69;42.15
47861;HTU21D;33620;52.340;5.984;2023-06-24T12:43:18;27.67;41.00
47861;HTU21D;33620;52.340;5.984;2023-06-24T12:45:44;27.66;41.71
47861;HTU21D;33620;52.340;5.984;2023-06-24T12:48:10;27.64;42.07
47861;HTU21D;33620;52.340;5.984;2023-06-24T12:50:35;27.66;42.46
47861;HTU21D;33620;52.340;5.984;2023-06-24T12:53:01;27.68;42.19
47861;HTU21D;33620;52.340;5.984;2023-06-24T12:55:28;27.68;40.78
47861;HTU21D;33620;52.340;5.984;2023-06-24T12:57:54;27.60;41.41
47861;HTU21D;33620;52.340;5.984;2023-06-24T13:00:20;27.61;42.36
47861;HTU21D;33620;52.340;5.984;2023-06-24T13:02:46;27.51;42.49
47861;HTU21D;33620;52.340;5.984;2023-06-24T13:05:12;27.55;42.18
47861;HTU21D;33620;52.340;5.984;2023-06-24T13:07:37;27.54;41.19
47861;HTU21D;33620;52.340;5.984;2023-06-24T13:10:03;27.53;41.25
47861;HTU21D;33620;52.340;5.984;2023-06-24T13:12:31;27.53;42.57
47861;HTU21D;33620;52.340;5.984;2023-06-24T13:14:56;27.55;42.55
47861;HTU21D;33620;52.340;5.984;2023-06-24T13:17:22;27.52;41.95
47861;HTU21D;33620;52.340;5.984;2023-06-24T13:19:47;27.52;42.44
47861;HTU21D;33620;52.340;5.984;2023-06-24T13:22:13;27.55;43.18
47861;HTU21D;33620;52.340;5.984;2023-06-24T13:24:38;27.53;43.44
47861;HTU21D;33620;52.340;5.984;2023-06-24T13:27:03;27.52;42.94
47861;HTU21D;33620;52.340;5.984;2023-06-24T13:29:29;27.64;42.67
47861;HTU21D;33620;52.340;5.984;2023-06-24T13:31:55;27.85;44.38
47861;HTU21D;33620;52.340;5.984;2023-06-24T13:34:20;27.98;41.59
47861;HTU21D;33620;52.340;5.984;2023-06-24T13:36:45;27.91;41.52
47861;HTU21D;33620;52.340;5.984;2023-06-24T13:39:12;27.94;41.71
47861;HTU21D;33620;52.340;5.984;2023-06-24T13:41:38;27.97;42.46
47861;HTU21D;33620;52.340;5.984;2023-06-24T13:44:04;27.99;41.54
47861;HTU21D;33620;52.340;5.984;2023-06-24T13:46:30;27.99;41.19
47861;HTU21D;33620;52.340;5.984;2023-06-24T13:48:56;27.87;41.88
47861;HTU21D;33620;52.340;5.984;2023-06-24T13:51:22;27.84;41.78
47861;HTU21D;33620;52.340;5.984;2023-06-24T13:53:49;27.82;42.95
47861;HTU21D;33620;52.340;5.984;2023-06-24T13:56:16;27.83;43.80
47861;HTU21D;33620;52.340;5.984;2023-06-24T13:58:42;27.80;42.16
47861;HTU21D;33620;52.340;5.984;2023-06-24T14:01:07;27.78;43.07
47861;HTU21D;33620;52.340;5.984;2023-06-24T14:03:33;27.80;43.07
47861;HTU21D;33620;52.340;5.984;2023-06-24T14:05:58;27.81;43.19
47861;HTU21D;33620;52.340;5.984;2023-06-24T14:08:27;27.80;42.97
47861;HTU21D;33620;52.340;5.984;2023-06-24T14:10:52;27.85;42.88
47861;HTU21D;33620;52.340;5.984;2023-06-24T14:13:18;27.84;43.31
47861;HTU21D;33620;52.340;5.984;2023-06-24T14:15:43;27.94;42.63
47861;HTU21D;33620;52.340;5.984;2023-06-24T14:18:09;27.97;42.99
47861;HTU21D;33620;52.340;5.984;2023-06-24T14:20:34;28.13;42.93
47861;HTU21D;33620;52.340;5.984;2023-06-24T14:23:00;28.17;43.14
47861;HTU21D;33620;52.340;5.984;2023-06-24T14:25:25;28.26;43.66
47861;HTU21D;33620;52.340;5.984;2023-06-24T14:27:51;28.33;41.52
47861;HTU21D;33620;52.340;5.984;2023-06-24T14:30:16;28.39;41.64
47861;HTU21D;33620;52.340;5.984;2023-06-24T14:32:41;28.44;41.39
47861;HTU21D;33620;52.340;5.984;2023-06-24T14:35:07;28.37;40.84
47861;HTU21D;33620;52.340;5.984;2023-06-24T14:37:33;28.33;41.95
47861;HTU21D;33620;52.340;5.984;2023-06-24T14:39:58;28.42;43.69
47861;HTU21D;33620;52.340;5.984;2023-06-24T14:42:24;28.49;41.76
47861;HTU21D;33620;52.340;5.984;2023-06-24T14:44:49;28.65;41.91
47861;HTU21D;33620;52.340;5.984;2023-06-24T14:47:15;28.67;41.23
47861;HTU21D;33620;52.340;5.984;2023-06-24T14:49:40;28.58;40.26
47861;HTU21D;33620;52.340;5.984;2023-06-24T14:52:05;28.49;40.91
47861;HTU21D;33620;52.340;5.984;2023-06-24T14:54:31;28.34;40.33
47861;HTU21D;33620;52.340;5.984;2023-06-24T14:56:56;28.18;41.00
47861;HTU21D;33620;52.340;5.984;2023-06-24T14:59:22;28.13;41.14
47861;HTU21D;33620;52.340;5.984;2023-06-24T15:01:47;28.09;41.28
47861;HTU21D;33620;52.340;5.984;2023-06-24T15:04:12;28.13;41.37
47861;HTU21D;33620;52.340;5.984;2023-06-24T15:06:38;28.14;42.77
47861;HTU21D;33620;52.340;5.984;2023-06-24T15:09:03;28.16;42.49
47861;HTU21D;33620;52.340;5.984;2023-06-24T15:11:29;28.15;42.18
47861;HTU21D;33620;52.340;5.984;2023-06-24T15:13:54;28.12;41.93
47861;HTU21D;33620;52.340;5.984;2023-06-24T15:16:19;28.13;43.47
47861;HTU21D;33620;52.340;5.984;2023-06-24T15:18:46;28.14;42.48
47861;HTU21D;33620;52.340;5.984;2023-06-24T15:21:13;28.14;42.95
47861;HTU21D;33620;52.340;5.984;2023-06-24T15:23:38;28.11;42.21